Time;durP1;ratioP1;P1;durP2;ratioP2;P2;SDS_P1;SDS_P2;PMS_P1;PMS_P2;Temp;Humidity;BMP_temperature;BMP_pressure;BME280_temperature;BME280_humidity;BME280_pressure;Samples;Min_cycle;Max_cycle;Signal;HPM_P1;HPM_P2
2022/12/10 00:04:33;;;;;;;28.33;11.98;;;5.30;97.30;;;;;;9677889;24;20062;-65
2022/12/10 00:09:34;;;;;;;29.88;13.07;;;5.60;97.40;;;;;;9641110;30;20038;-64
2022/12/10 00:14:35;;;;;;;29.70;12.63;;;5.30;97.30;;;;;;9645758;30;20437;-65
2022/12/10 00:19:36;;;;;;;27.88;11.98;;;5.30;97.30;;;;;;9644848;30;20050;-65
2022/12/10 00:24:37;;;;;;;29.65;12.18;;;5.30;97.30;;;;;;9640786;30;20031;-66
2022/12/10 00:29:37;;;;;;;29.83;13.98;;;5.70;97.40;;;;;;9643310;30;20495;-65
2022/12/10 00:34:38;;;;;;;27.73;13.30;;;5.20;97.30;;;;;;9645183;30;20093;-64
2022/12/10 00:39:39;;;;;;;26.98;12.88;;;5.20;97.30;;;;;;9639638;30;20339;-65
2022/12/10 00:44:39;;;;;;;29.95;13.05;;;5.60;97.40;;;;;;9644324;30;20041;-65
2022/12/10 00:49:40;;;;;;;29.20;13.15;;;5.20;97.20;;;;;;9641939;30;21944;-65
2022/12/10 00:54:41;;;;;;;30.88;12.70;;;5.30;97.30;;;;;;9644067;30;20042;-65
2022/12/10 00:59:42;;;;;;;33.78;13.75;;;5.80;97.40;;;;;;9650176;30;20140;-65
2022/12/10 01:04:42;;;;;;;31.52;13.50;;;5.20;97.20;;;;;;9647943;30;20050;-65
2022/12/10 01:09:43;;;;;;;28.92;12.13;;;5.70;97.30;;;;;;9645453;30;20034;-65
2022/12/10 01:14:44;;;;;;;29.70;12.25;;;5.10;97.20;;;;;;9648411;30;20038;-65
2022/12/10 01:19:44;;;;;;;29.05;12.52;;;5.10;97.20;;;;;;9646510;30;20088;-65
2022/12/10 01:24:45;;;;;;;32.70;13.98;;;5.10;97.10;;;;;;9645867;30;20035;-66
2022/12/10 01:29:46;;;;;;;32.28;13.02;;;5.10;97.40;;;;;;9647540;30;20113;-65
2022/12/10 01:34:47;;;;;;;30.17;12.82;;;5.10;97.10;;;;;;9647519;30;20073;-65
2022/12/10 01:39:48;;;;;;;33.33;13.32;;;5.10;97.10;;;;;;9646033;30;20325;-65
2022/12/10 01:44:48;;;;;;;31.00;13.00;;;5.10;97.10;;;;;;9647669;30;20477;-66
2022/12/10 01:49:49;;;;;;;28.88;13.73;;;5.10;97.10;;;;;;9647787;30;20557;-65
2022/12/10 01:54:50;;;;;;;32.30;13.05;;;5.10;97.00;;;;;;9645865;30;20050;-65
2022/12/10 02:00:00;;;;;;;32.90;13.73;;;5.10;97.00;;;;;;9649858;30;20347;-65
2022/12/10 02:05:19;;;;;;;31.75;13.48;;;5.10;97.00;;;;;;9657512;30;20573;-65
2022/12/10 02:10:35;;;;;;;32.08;14.00;;;5.10;96.90;;;;;;9648915;30;20065;-65
2022/12/10 02:15:50;;;;;;;32.05;12.95;;;5.00;97.00;;;;;;9646474;30;20045;-65
2022/12/10 02:20:58;;;;;;;33.95;14.55;;;5.80;97.10;;;;;;9646542;30;20048;-65
2022/12/10 02:26:27;;;;;;;32.03;13.02;;;5.00;96.90;;;;;;9643408;30;20029;-65
2022/12/10 02:31:31;;;;;;;32.97;13.63;;;5.00;96.80;;;;;;9646405;30;20030;-65
2022/12/10 02:36:37;;;;;;;34.63;13.60;;;5.00;96.90;;;;;;9644912;30;20050;-65
2022/12/10 02:41:42;;;;;;;38.13;14.35;;;5.00;96.90;;;;;;9643926;30;20065;-65
2022/12/10 02:46:45;;;;;;;33.83;14.30;;;5.70;97.10;;;;;;9648171;30;20088;-65
2022/12/10 02:51:46;;;;;;;36.28;14.40;;;5.20;97.00;;;;;;9642447;30;20034;-65
2022/12/10 02:56:54;;;;;;;30.40;13.70;;;6.40;97.30;;;;;;9643176;30;20081;-65
2022/12/10 03:02:15;;;;;;;35.03;14.67;;;5.30;97.00;;;;;;9645381;30;20152;-65
2022/12/10 03:07:25;;;;;;;38.45;15.32;;;5.60;96.90;;;;;;9645983;30;20057;-65
2022/12/10 03:12:35;;;;;;;32.65;14.23;;;4.90;96.90;;;;;;9645707;30;20066;-65
2022/12/10 03:17:38;;;;;;;31.77;13.63;;;5.40;97.00;;;;;;9643989;30;20390;-65
2022/12/10 03:22:43;;;;;;;36.33;14.60;;;6.10;97.40;;;;;;9626229;30;20030;-65
2022/12/10 03:27:49;;;;;;;34.30;13.75;;;5.10;96.90;;;;;;9643883;30;20038;-65
2022/12/10 03:32:50;;;;;;;35.42;13.75;;;4.80;96.80;;;;;;9648059;30;20034;-65
2022/12/10 03:37:51;;;;;;;35.45;14.95;;;4.80;96.80;;;;;;9640765;30;20056;-65
2022/12/10 03:42:52;;;;;;;31.13;13.55;;;4.80;96.80;;;;;;9642412;30;20133;-65
2022/12/10 03:47:53;;;;;;;34.33;13.82;;;4.80;96.80;;;;;;9647270;30;20034;-66
2022/12/10 03:52:54;;;;;;;34.60;14.40;;;5.20;96.90;;;;;;9641519;30;20097;-65
2022/12/10 03:57:54;;;;;;;31.77;12.75;;;5.80;97.00;;;;;;9641809;30;20557;-65
2022/12/10 04:02:55;;;;;;;35.80;14.00;;;5.40;96.90;;;;;;9644696;30;20409;-66
2022/12/10 04:07:56;;;;;;;38.17;14.13;;;4.80;96.70;;;;;;9641860;30;20038;-66
2022/12/10 04:18:16;;;;;;;31.38;13.05;;;4.70;96.70;;;;;;9640629;30;20078;-66
2022/12/10 04:28:36;;;;;;;35.92;14.32;;;4.70;96.70;;;;;;9649980;30;20046;-66
2022/12/10 04:33:37;;;;;;;35.90;14.27;;;4.70;96.70;;;;;;9652386;30;20468;-66
2022/12/10 04:38:39;;;;;;;35.80;14.88;;;4.80;96.70;;;;;;9652058;30;20038;-66
2022/12/10 04:43:40;;;;;;;43.15;15.98;;;5.00;96.70;;;;;;9651952;30;20039;-66
2022/12/10 04:48:40;;;;;;;35.97;14.45;;;5.90;97.00;;;;;;9654155;30;20045;-66
2022/12/10 04:53:41;;;;;;;39.33;14.75;;;4.60;96.60;;;;;;9650559;30;20026;-66
2022/12/10 04:58:42;;;;;;;37.47;14.20;;;5.00;96.70;;;;;;9650726;30;20052;-66
2022/12/10 05:03:42;;;;;;;35.10;14.07;;;5.10;96.70;;;;;;9651496;30;20075;-65
2022/12/10 05:08:44;;;;;;;37.85;14.25;;;4.60;96.60;;;;;;9650913;30;20038;-65
2022/12/10 05:13:45;;;;;;;37.30;13.93;;;4.80;96.60;;;;;;9647644;30;20026;-65
2022/12/10 05:18:46;;;;;;;38.97;14.63;;;4.80;96.60;;;;;;9649704;30;20043;-66
2022/12/10 05:23:49;;;;;;;36.03;14.10;;;4.70;96.60;;;;;;9648996;30;20527;-65
2022/12/10 05:28:55;;;;;;;37.33;13.40;;;5.40;96.70;;;;;;9646130;30;20045;-65
2022/12/10 05:33:57;;;;;;;36.90;14.07;;;4.80;96.60;;;;;;9648508;30;20572;-65
2022/12/10 05:38:59;;;;;;;36.95;13.68;;;4.60;96.50;;;;;;9645555;30;20077;-66
2022/12/10 05:44:00;;;;;;;36.17;14.27;;;5.00;96.60;;;;;;9645761;30;20486;-65
2022/12/10 05:49:03;;;;;;;35.50;13.88;;;4.60;96.50;;;;;;9647145;30;20054;-65
2022/12/10 05:54:05;;;;;;;35.42;14.45;;;4.60;96.50;;;;;;9644477;30;20027;-65
2022/12/10 05:59:06;;;;;;;38.35;15.35;;;4.60;96.50;;;;;;9648614;30;20082;-66
2022/12/10 06:04:07;;;;;;;37.42;14.77;;;5.00;96.60;;;;;;9642551;30;20476;-66
2022/12/10 06:09:13;;;;;;;36.40;14.57;;;4.60;96.50;;;;;;9643823;30;20052;-66
2022/12/10 06:14:13;;;;;;;32.80;13.07;;;4.60;96.50;;;;;;9646798;30;20513;-65
2022/12/10 06:19:14;;;;;;;36.88;14.73;;;4.80;96.50;;;;;;9645922;30;20137;-65
2022/12/10 06:24:15;;;;;;;34.05;13.70;;;4.50;96.50;;;;;;9647946;30;20034;-67
2022/12/10 06:29:16;;;;;;;32.22;13.40;;;4.50;96.50;;;;;;9643203;30;20516;-66
2022/12/10 06:34:16;;;;;;;30.05;12.88;;;5.20;96.60;;;;;;9646561;30;20039;-65
2022/12/10 06:39:17;;;;;;;31.23;13.48;;;4.60;96.50;;;;;;9644496;30;20137;-65
2022/12/10 06:44:18;;;;;;;32.22;13.70;;;4.50;96.50;;;;;;9642173;30;20556;-66
2022/12/10 06:49:19;;;;;;;33.10;12.90;;;4.50;96.50;;;;;;9646624;30;20138;-66
2022/12/10 06:54:19;;;;;;;32.17;12.15;;;4.50;96.50;;;;;;9643736;30;20030;-68
2022/12/10 06:59:20;;;;;;;30.20;13.07;;;4.50;96.50;;;;;;9643849;30;20445;-66
2022/12/10 07:04:21;;;;;;;31.77;13.38;;;4.50;96.50;;;;;;9637051;30;20042;-67
2022/12/10 07:09:22;;;;;;;29.55;12.27;;;4.50;96.40;;;;;;9644251;30;20506;-66
2022/12/10 07:14:22;;;;;;;32.72;13.25;;;4.50;96.50;;;;;;9645798;30;20381;-65
2022/12/10 07:19:23;;;;;;;37.10;14.40;;;5.20;96.60;;;;;;9643643;30;20057;-65
2022/12/10 07:24:24;;;;;;;31.63;13.75;;;4.70;96.50;;;;;;9642515;30;20039;-65
2022/12/10 07:29:26;;;;;;;33.35;13.68;;;5.00;96.60;;;;;;9643907;30;20065;-65
2022/12/10 07:34:27;;;;;;;32.70;13.05;;;4.50;96.50;;;;;;9644738;30;20027;-65
2022/12/10 07:39:27;;;;;;;28.60;12.05;;;4.50;96.50;;;;;;9643756;30;20413;-66
2022/12/10 07:44:28;;;;;;;36.60;13.50;;;5.10;96.60;;;;;;9644214;30;20190;-65
2022/12/10 07:49:29;;;;;;;37.13;13.98;;;4.50;96.40;;;;;;9643263;30;20039;-66
2022/12/10 07:54:30;;;;;;;38.75;14.95;;;4.50;96.40;;;;;;9643395;30;20071;-65
2022/12/10 07:59:30;;;;;;;35.08;14.48;;;4.50;96.40;;;;;;9640930;30;20086;-66
2022/12/10 08:04:31;;;;;;;32.85;13.02;;;4.50;96.40;;;;;;9651234;30;20101;-65
2022/12/10 08:09:34;;;;;;;34.20;13.02;;;4.90;96.50;;;;;;9653958;30;20068;-66
2022/12/10 08:14:35;;;;;;;43.20;15.20;;;4.50;96.40;;;;;;9658510;30;20496;-65
2022/12/10 08:19:36;;;;;;;41.00;15.85;;;4.50;96.40;;;;;;9653629;30;20057;-65
2022/12/10 08:24:37;;;;;;;39.83;14.90;;;4.50;96.40;;;;;;9654131;30;20129;-66
2022/12/10 08:29:37;;;;;;;42.17;15.40;;;4.50;96.40;;;;;;9654949;30;20049;-65
2022/12/10 08:34:38;;;;;;;38.88;14.50;;;4.70;96.40;;;;;;9654785;30;20188;-63
2022/12/10 08:39:40;;;;;;;40.45;14.65;;;4.40;96.40;;;;;;9625005;30;20042;-64
2022/12/10 08:44:40;;;;;;;41.42;15.10;;;4.40;96.40;;;;;;9583264;30;20320;-65
2022/12/10 08:49:41;;;;;;;44.40;15.00;;;4.50;96.40;;;;;;9590806;30;20534;-64
2022/12/10 08:54:42;;;;;;;38.10;13.88;;;4.40;96.40;;;;;;9600497;30;20528;-64
2022/12/10 08:59:43;;;;;;;40.15;15.13;;;4.50;96.40;;;;;;9590885;30;20469;-65
2022/12/10 09:04:46;;;;;;;38.17;14.27;;;4.50;96.40;;;;;;9634935;25;20069;-75
2022/12/10 09:09:46;;;;;;;38.85;14.23;;;4.50;96.40;;;;;;9654355;30;20054;-73
2022/12/10 09:14:47;;;;;;;37.17;13.70;;;5.00;96.50;;;;;;9678266;30;20053;-73
2022/12/10 09:19:48;;;;;;;34.88;13.70;;;4.50;96.40;;;;;;9661110;30;20069;-70
2022/12/10 09:24:48;;;;;;;34.95;13.55;;;4.50;96.40;;;;;;9680258;30;20442;-69
2022/12/10 09:29:49;;;;;;;32.97;12.93;;;4.40;96.30;;;;;;9622433;30;20080;-71
2022/12/10 09:34:53;;;;;;;35.67;13.38;;;4.80;96.40;;;;;;9612045;30;20115;-74
2022/12/10 09:39:54;;;;;;;34.17;13.18;;;4.90;96.50;;;;;;9614954;30;20069;-73
2022/12/10 09:45:21;;;;;;;32.28;13.45;;;4.50;96.40;;;;;;9630666;30;20119;-73
2022/12/10 09:50:36;;;;;;;31.17;13.02;;;4.50;96.40;;;;;;9617739;30;21072;-72
2022/12/10 09:56:17;;;;;;;36.40;14.27;;;4.80;96.40;;;;;;9630166;30;20075;-70
2022/12/10 10:02:17;;;;;;;32.47;13.23;;;4.50;96.30;;;;;;9622532;30;20049;-70
2022/12/10 10:08:14;;;;;;;33.22;13.35;;;4.50;96.30;;;;;;9625613;30;20063;-71
2022/12/10 10:14:32;;;;;;;36.95;13.25;;;4.50;96.30;;;;;;9624120;30;21806;-71
2022/12/10 10:20:33;;;;;;;30.08;11.95;;;4.50;96.20;;;;;;9621362;30;20050;-72
2022/12/10 10:26:33;;;;;;;32.83;12.75;;;4.50;96.50;;;;;;9619317;30;20042;-73
2022/12/10 10:32:35;;;;;;;34.63;12.85;;;4.50;96.30;;;;;;9628153;30;20068;-76
2022/12/10 10:38:04;;;;;;;33.78;12.50;;;4.50;96.20;;;;;;9627639;30;20056;-75
2022/12/10 10:43:48;;;;;;;31.95;12.93;;;4.60;96.40;;;;;;9614022;30;20079;-75
2022/12/10 10:49:47;;;;;;;31.75;12.82;;;4.50;96.30;;;;;;9623845;30;20129;-75
2022/12/10 10:55:52;;;;;;;33.78;12.20;;;4.70;96.40;;;;;;9630709;30;20049;-75
2022/12/10 11:01:52;;;;;;;31.60;12.93;;;4.50;96.30;;;;;;9628483;30;20107;-74
2022/12/10 15:59:05;;;;;;;32.78;11.73;;;4.60;97.90;;;;;;9677135;30;20065;-70
2022/12/10 16:04:06;;;;;;;25.63;10.57;;;4.70;97.80;;;;;;9652348;30;20058;-72
2022/12/10 16:09:09;;;;;;;29.08;10.50;;;4.60;97.70;;;;;;9669830;30;20137;-78
2022/12/10 16:14:13;;;;;;;30.38;10.13;;;4.60;97.90;;;;;;9672245;30;20045;-74
2022/12/10 16:19:15;;;;;;;25.73;9.52;;;4.70;97.90;;;;;;9669045;30;20088;-85
2022/12/10 16:24:17;;;;;;;29.73;10.82;;;4.70;98.10;;;;;;9672386;30;20046;-70
2022/12/10 16:29:58;;;;;;;27.95;10.98;;;4.80;98.10;;;;;;9668586;30;20046;-69
2022/12/10 16:35:58;;;;;;;27.00;10.05;;;4.90;98.10;;;;;;9663429;30;20121;-72
2022/12/10 16:41:59;;;;;;;25.75;10.20;;;4.80;98.00;;;;;;9671471;30;20050;-70
2022/12/10 16:47:59;;;;;;;29.30;10.35;;;4.70;97.90;;;;;;9668749;30;20582;-70
2022/12/10 16:54:06;;;;;;;30.23;11.05;;;4.80;98.00;;;;;;9669056;30;20453;-70
2022/12/10 17:00:06;;;;;;;29.13;10.60;;;4.50;97.90;;;;;;9670295;30;20069;-72
2022/12/10 17:05:41;;;;;;;27.38;9.93;;;4.40;98.00;;;;;;9674842;30;20136;-73
2022/12/10 17:17:21;;;;;;;26.63;10.40;;;4.30;98.00;;;;;;9678044;30;20058;-77
2022/12/10 17:23:22;;;;;;;28.45;11.32;;;4.40;98.00;;;;;;9678146;30;20070;-78
2022/12/10 17:29:35;;;;;;;29.45;10.65;;;4.40;98.20;;;;;;9676477;30;20145;-77
2022/12/10 17:35:34;;;;;;;27.25;9.73;;;4.50;97.90;;;;;;9660131;30;20542;-79
2022/12/10 17:40:55;;;;;;;27.13;9.88;;;4.50;97.90;;;;;;9651024;30;20051;-78
2022/12/10 17:46:35;;;;;;;28.73;9.93;;;4.50;97.80;;;;;;9659912;30;20046;-78
2022/12/10 17:52:36;;;;;;;23.80;8.90;;;4.60;98.30;;;;;;9660884;30;20050;-76
